createdAt,value
2023-05-19T00:00:21.445Z,82.20
2023-05-19T00:03:09.185Z,82.30
2023-05-19T00:05:59.352Z,82.40
2023-05-19T00:08:46.933Z,82.50
2023-05-19T00:11:36.833Z,82.50
2023-05-19T00:14:24.409Z,82.60
2023-05-19T00:17:14.410Z,82.70
2023-05-19T00:20:07.304Z,82.80
2023-05-19T00:22:54.919Z,83.20
2023-05-19T00:25:42.196Z,83.30
2023-05-19T00:28:30.323Z,83.40
2023-05-19T00:31:17.640Z,83.60
2023-05-19T00:34:07.215Z,83.70
2023-05-19T00:36:54.399Z,84.00
2023-05-19T00:39:42.533Z,84.20
2023-05-19T00:42:29.799Z,84.00
2023-05-19T00:45:18.042Z,83.80
2023-05-19T00:48:05.329Z,84.00
2023-05-19T00:50:58.432Z,84.20
2023-05-19T00:53:49.222Z,84.20
2023-05-19T00:56:37.685Z,84.10
2023-05-19T00:59:25.024Z,84.40
2023-05-19T01:02:13.799Z,84.70
2023-05-19T01:05:01.975Z,84.90
2023-05-19T01:07:53.980Z,85.00
2023-05-19T01:10:41.217Z,84.90
2023-05-19T01:13:29.954Z,85.00
2023-05-19T01:16:25.205Z,85.40
2023-05-19T01:19:30.775Z,85.30
2023-05-19T01:22:55.363Z,84.90
2023-05-19T01:26:13.116Z,85.40
2023-05-19T01:29:17.208Z,85.20
2023-05-19T01:32:06.784Z,85.70
2023-05-19T01:34:57.578Z,85.40
2023-05-19T01:37:47.391Z,85.80
2023-05-19T01:40:36.078Z,85.70
2023-05-19T01:43:27.091Z,85.80
2023-05-19T01:46:14.863Z,86.10
2023-05-19T01:49:05.120Z,85.80
2023-05-19T01:51:52.913Z,86.00
2023-05-19T01:54:43.089Z,86.20
2023-05-19T01:57:40.244Z,86.50
2023-05-19T02:00:36.846Z,87.00
2023-05-19T02:03:37.770Z,86.90
2023-05-19T02:06:36.048Z,86.90
2023-05-19T02:09:33.484Z,86.60
2023-05-19T02:12:27.104Z,86.80
2023-05-19T02:15:17.176Z,87.30
2023-05-19T02:18:05.539Z,87.50
2023-05-19T02:20:53.625Z,87.30
2023-05-19T02:23:42.840Z,87.40
2023-05-19T02:26:30.482Z,87.20
2023-05-19T02:29:17.703Z,87.40
2023-05-19T02:32:07.309Z,87.50
2023-05-19T02:34:56.962Z,87.50
2023-05-19T02:37:44.629Z,87.90
2023-05-19T02:40:34.192Z,87.90
2023-05-19T02:43:21.513Z,87.80
2023-05-19T02:46:09.865Z,88.00
2023-05-19T02:48:57.751Z,88.20
2023-05-19T02:51:44.941Z,88.60
2023-05-19T02:54:34.416Z,88.20
2023-05-19T02:57:23.374Z,88.00
2023-05-19T03:00:11.653Z,88.10
2023-05-19T03:03:03.190Z,88.30
2023-05-19T03:05:50.952Z,88.40
2023-05-19T03:08:40.116Z,88.30
2023-05-19T03:11:31.390Z,88.30
2023-05-19T03:14:24.416Z,88.20
2023-05-19T03:17:12.330Z,88.20
2023-05-19T03:20:01.918Z,88.60
2023-05-19T03:22:49.545Z,88.30
2023-05-19T03:25:36.774Z,88.40
2023-05-19T03:28:29.566Z,88.40
2023-05-19T03:31:19.091Z,88.40
2023-05-19T03:34:07.282Z,88.60
2023-05-19T03:36:54.519Z,88.90
2023-05-19T03:39:43.619Z,88.80
2023-05-19T03:42:31.287Z,89.10
2023-05-19T03:45:18.965Z,89.50
2023-05-19T03:48:11.361Z,89.50
2023-05-19T03:51:26.484Z,89.50
2023-05-19T03:54:17.491Z,89.60
2023-05-19T03:57:05.322Z,89.30
2023-05-19T03:59:53.483Z,89.50
2023-05-19T04:02:42.070Z,89.90
2023-05-19T04:05:31.316Z,90.10
2023-05-19T04:08:18.951Z,90.20
2023-05-19T04:11:06.686Z,90.60
2023-05-19T04:13:53.813Z,90.40
2023-05-19T04:16:42.203Z,90.80
2023-05-19T04:19:29.878Z,90.70
2023-05-19T04:22:18.353Z,91.20
2023-05-19T04:25:08.049Z,90.90
2023-05-19T04:27:57.708Z,90.50
2023-05-19T04:30:47.101Z,90.80
2023-05-19T04:33:34.430Z,91.20
2023-05-19T04:36:22.874Z,90.70
2023-05-19T04:39:14.417Z,90.80
2023-05-19T04:42:04.867Z,90.80
2023-05-19T04:44:52.831Z,90.90
2023-05-19T04:47:44.834Z,90.70
2023-05-19T04:50:32.941Z,90.70
2023-05-19T04:53:22.026Z,91.10
2023-05-19T04:56:15.648Z,91.00
2023-05-19T04:59:04.962Z,91.00
2023-05-19T05:01:52.805Z,91.00
2023-05-19T05:04:43.565Z,91.20
2023-05-19T05:07:32.502Z,90.90
2023-05-19T05:10:20.606Z,90.50
2023-05-19T05:13:11.961Z,90.10
2023-05-19T05:16:00.228Z,89.80
2023-05-19T05:18:48.843Z,88.90
2023-05-19T05:21:37.488Z,89.00
2023-05-19T05:24:25.589Z,88.90
2023-05-19T05:27:17.990Z,89.00
2023-05-19T05:30:08.211Z,88.90
2023-05-19T05:32:57.620Z,88.20
2023-05-19T05:35:51.728Z,88.70
2023-05-19T05:38:39.436Z,88.40
2023-05-19T05:41:27.371Z,88.10
2023-05-19T05:44:15.656Z,88.10
2023-05-19T05:47:07.461Z,87.40
2023-05-19T05:49:56.755Z,86.80
2023-05-19T05:52:46.252Z,87.10
2023-05-19T05:55:35.457Z,86.10
2023-05-19T05:58:22.808Z,85.20
2023-05-19T06:01:11.335Z,81.70
2023-05-19T06:04:00.166Z,75.90
2023-05-19T06:06:48.321Z,71.90
2023-05-19T06:09:40.297Z,71.90
2023-05-19T06:12:29.880Z,71.70
2023-05-19T06:15:17.043Z,70.20
2023-05-19T06:18:17.959Z,68.90
2023-05-19T06:21:07.519Z,71.40
2023-05-19T06:23:55.456Z,74.60
2023-05-19T06:26:42.614Z,76.90
2023-05-19T06:29:29.837Z,75.00
2023-05-19T06:32:21.662Z,72.70
2023-05-19T06:35:09.424Z,68.70
2023-05-19T06:37:58.476Z,69.80
2023-05-19T06:40:45.713Z,71.50
2023-05-19T06:43:34.528Z,69.40
2023-05-19T06:46:24.990Z,66.80
2023-05-19T06:49:12.644Z,67.80
2023-05-19T06:52:04.102Z,68.60
2023-05-19T06:54:53.836Z,70.40
2023-05-19T06:57:41.345Z,69.40
2023-05-19T07:00:29.417Z,71.20
2023-05-19T07:03:17.639Z,69.80
2023-05-19T07:06:08.110Z,66.80
2023-05-19T07:08:56.686Z,67.90
2023-05-19T07:11:46.400Z,69.40
2023-05-19T07:14:34.072Z,66.20
2023-05-19T07:17:21.748Z,66.90
2023-05-19T07:20:10.595Z,67.60
2023-05-19T07:22:57.713Z,68.50
2023-05-19T07:25:45.844Z,68.30
2023-05-19T07:28:34.438Z,69.10
2023-05-19T07:31:22.561Z,69.10
2023-05-19T07:34:10.525Z,65.30
2023-05-19T07:36:57.643Z,64.90
2023-05-19T07:39:45.696Z,67.50
2023-05-19T07:42:32.904Z,66.80
2023-05-19T07:45:21.474Z,68.20
2023-05-19T07:48:09.654Z,68.70
2023-05-19T07:50:56.994Z,70.00
2023-05-19T07:53:45.135Z,70.10
2023-05-19T07:56:32.252Z,69.40
2023-05-19T07:59:20.094Z,69.20
2023-05-19T08:02:08.674Z,71.10
2023-05-19T08:04:56.964Z,71.10
2023-05-19T08:07:44.287Z,70.60
2023-05-19T08:10:32.693Z,70.40
2023-05-19T08:13:20.109Z,69.60
2023-05-19T08:16:07.499Z,69.90
2023-05-19T08:18:56.517Z,71.10
2023-05-19T08:21:44.716Z,71.60
2023-05-19T08:24:33.806Z,72.40
2023-05-19T08:27:21.032Z,72.00
2023-05-19T08:30:09.458Z,72.40
2023-05-19T08:32:57.691Z,72.80
2023-05-19T08:35:46.382Z,72.30
2023-05-19T08:38:34.662Z,73.10
2023-05-19T08:41:23.744Z,73.40
2023-05-19T08:44:11.082Z,74.10
2023-05-19T08:47:03.240Z,73.10
2023-05-19T08:49:53.754Z,73.80
2023-05-19T08:52:53.131Z,73.80
2023-05-19T08:55:47.354Z,73.60
2023-05-19T08:58:35.330Z,74.40
2023-05-19T09:01:23.470Z,74.80
2023-05-19T09:04:12.141Z,75.20
2023-05-19T09:07:04.315Z,75.30
2023-05-19T09:09:52.876Z,76.50
2023-05-19T09:12:41.295Z,76.00
2023-05-19T09:15:28.791Z,76.90
2023-05-19T09:18:16.955Z,75.60
2023-05-19T09:21:07.717Z,77.00
2023-05-19T09:23:56.031Z,75.80
2023-05-19T09:26:45.419Z,76.70
2023-05-19T09:29:33.174Z,75.90
2023-05-19T09:32:27.373Z,75.10
2023-05-19T09:35:20.670Z,75.20
2023-05-19T09:38:07.981Z,74.90
2023-05-19T09:40:58.742Z,74.30
2023-05-19T09:43:55.415Z,74.40
2023-05-19T09:46:49.424Z,75.00
2023-05-19T09:49:37.565Z,75.00
2023-05-19T09:52:26.317Z,75.50
2023-05-19T09:55:14.352Z,76.40
2023-05-19T09:58:04.681Z,76.30
2023-05-19T10:00:55.299Z,75.80
2023-05-19T10:03:43.598Z,76.00
2023-05-19T10:06:31.822Z,73.80
2023-05-19T10:09:23.248Z,73.90
2023-05-19T10:12:12.151Z,73.90
2023-05-19T10:15:00.474Z,73.70
2023-05-19T10:17:50.853Z,73.90
2023-05-19T10:20:40.575Z,74.20
2023-05-19T10:23:27.886Z,73.30
2023-05-19T10:26:16.618Z,73.90
2023-05-19T10:29:05.025Z,74.90
2023-05-19T10:31:55.036Z,74.80
2023-05-19T10:35:12.089Z,75.60
2023-05-19T10:38:07.444Z,74.50
2023-05-19T10:41:04.535Z,74.80
2023-05-19T10:44:01.949Z,74.40
2023-05-19T10:46:50.123Z,74.90
2023-05-19T10:49:37.517Z,74.90
2023-05-19T10:52:26.729Z,74.80
2023-05-19T10:55:17.768Z,74.60
2023-05-19T10:58:05.523Z,74.50
2023-05-19T11:01:01.223Z,74.10
2023-05-19T11:03:51.130Z,75.30
2023-05-19T11:06:40.296Z,72.70
2023-05-19T11:09:39.693Z,73.20
2023-05-19T11:12:28.023Z,72.70
2023-05-19T11:15:16.342Z,73.50
2023-05-19T11:18:05.427Z,73.10
2023-05-19T11:20:58.294Z,73.40
2023-05-19T11:23:46.522Z,73.80
2023-05-19T11:26:46.278Z,73.20
2023-05-19T11:29:34.881Z,73.50
2023-05-19T11:32:25.727Z,72.50
2023-05-19T11:35:15.223Z,72.50
2023-05-19T11:38:03.267Z,71.80
2023-05-19T11:40:54.304Z,70.50
2023-05-19T11:43:43.303Z,71.70
2023-05-19T11:46:32.051Z,71.30
2023-05-19T11:49:19.840Z,70.70
2023-05-19T11:52:07.861Z,71.20
2023-05-19T11:54:55.603Z,71.00
2023-05-19T11:58:02.815Z,71.50
2023-05-19T12:00:54.580Z,71.60
2023-05-19T12:03:42.410Z,72.50
2023-05-19T12:06:30.443Z,71.90
2023-05-19T12:09:18.830Z,72.30
2023-05-19T12:12:06.279Z,72.50
2023-05-19T12:14:54.026Z,72.10
2023-05-19T12:17:42.617Z,72.40
2023-05-19T12:20:32.948Z,71.70
2023-05-19T12:23:20.454Z,72.90
2023-05-19T12:26:08.992Z,72.70
2023-05-19T12:28:56.178Z,73.30
2023-05-19T12:31:46.871Z,73.80
2023-05-19T12:34:37.379Z,72.70
2023-05-19T12:37:28.076Z,74.20
2023-05-19T12:40:16.763Z,73.50
2023-05-19T12:43:05.910Z,73.90
2023-05-19T12:45:53.414Z,73.90
2023-05-19T12:48:42.230Z,73.50
2023-05-19T12:51:31.249Z,73.80
2023-05-19T12:54:19.577Z,73.10
2023-05-19T12:57:07.721Z,72.70
2023-05-19T13:00:01.035Z,72.60
2023-05-19T13:02:56.790Z,73.00
2023-05-19T13:05:47.144Z,73.60
2023-05-19T13:08:36.531Z,72.00
2023-05-19T13:11:24.260Z,72.20
2023-05-19T13:14:12.532Z,71.70
2023-05-19T13:17:00.339Z,72.70
2023-05-19T13:19:48.247Z,72.90
2023-05-19T13:22:35.881Z,73.30
2023-05-19T13:25:25.229Z,70.80
2023-05-19T13:28:12.756Z,71.00
2023-05-19T13:31:00.883Z,68.80
2023-05-19T13:33:48.011Z,67.40
2023-05-19T13:36:36.975Z,67.60
2023-05-19T13:39:24.310Z,67.80
2023-05-19T13:42:13.342Z,66.80
2023-05-19T13:45:00.675Z,66.30
2023-05-19T13:47:48.320Z,66.60
2023-05-19T13:50:35.624Z,66.70
2023-05-19T13:53:23.301Z,66.50
2023-05-19T13:56:10.556Z,66.90
2023-05-19T13:58:59.518Z,65.80
2023-05-19T14:01:46.680Z,66.20
2023-05-19T14:04:37.664Z,65.70
2023-05-19T14:07:25.754Z,66.60
2023-05-19T14:10:14.070Z,65.90
2023-05-19T14:15:53.320Z,67.00
2023-05-19T14:18:40.644Z,67.30
2023-05-19T14:21:28.787Z,67.30
2023-05-19T14:24:15.929Z,68.10
2023-05-19T14:27:04.162Z,68.10
2023-05-19T14:29:51.292Z,68.90
2023-05-19T14:32:41.454Z,69.20
2023-05-19T14:35:28.870Z,69.00
2023-05-19T14:38:17.063Z,69.10
2023-05-19T14:41:04.530Z,70.40
2023-05-19T14:43:52.722Z,69.80
2023-05-19T14:46:39.953Z,71.10
2023-05-19T14:49:29.588Z,71.50
2023-05-19T14:52:17.798Z,71.40
2023-05-19T14:55:06.643Z,71.20
2023-05-19T14:57:53.836Z,71.40
2023-05-19T15:00:42.008Z,71.50
2023-05-19T15:03:29.682Z,71.70
2023-05-19T15:06:18.788Z,71.50
2023-05-19T15:09:05.995Z,72.20
2023-05-19T15:11:53.682Z,72.00
2023-05-19T15:14:41.379Z,71.80
2023-05-19T15:17:28.553Z,71.80
2023-05-19T15:20:16.887Z,72.00
2023-05-19T15:23:05.334Z,73.10
2023-05-19T15:25:53.124Z,72.30
2023-05-19T15:28:40.799Z,72.60
2023-05-19T15:31:28.558Z,72.70
2023-05-19T15:34:16.299Z,72.90
2023-05-19T15:37:03.572Z,72.30
2023-05-19T15:39:52.076Z,72.70
2023-05-19T15:42:39.714Z,72.90
2023-05-19T15:45:27.471Z,71.30
2023-05-19T15:48:14.662Z,71.20
2023-05-19T15:51:02.900Z,70.40
2023-05-19T15:53:50.594Z,69.40
2023-05-19T15:56:39.544Z,68.90
2023-05-19T15:59:26.660Z,69.80
2023-05-19T16:02:15.514Z,68.50
2023-05-19T16:05:02.965Z,67.90
2023-05-19T16:07:50.124Z,68.60
2023-05-19T16:10:37.337Z,68.80
2023-05-19T16:13:25.932Z,69.50
2023-05-19T16:16:13.745Z,69.10
2023-05-19T16:19:01.169Z,69.20
2023-05-19T16:21:48.802Z,69.30
2023-05-19T16:24:35.975Z,69.00
2023-05-19T16:27:23.625Z,69.30
2023-05-19T16:30:13.103Z,69.50
2023-05-19T16:33:01.374Z,71.00
2023-05-19T16:35:48.926Z,71.00
2023-05-19T16:38:36.701Z,71.90
2023-05-19T16:41:24.425Z,71.00
2023-05-19T16:44:14.292Z,71.10
2023-05-19T16:47:02.979Z,71.90
2023-05-19T16:49:50.134Z,71.80
2023-05-19T16:52:37.806Z,71.90
2023-05-19T16:55:26.631Z,72.00
2023-05-19T16:58:14.300Z,72.10
2023-05-19T17:01:01.530Z,72.10
2023-05-19T17:03:51.118Z,72.00
2023-05-19T17:06:38.879Z,72.10
2023-05-19T17:09:26.825Z,72.60
2023-05-19T17:12:14.027Z,72.50
2023-05-19T17:15:02.193Z,72.90
2023-05-19T17:17:50.184Z,73.00
2023-05-19T17:20:38.786Z,73.30
2023-05-19T17:23:26.983Z,73.40
2023-05-19T17:26:15.770Z,74.10
2023-05-19T17:29:04.141Z,74.60
2023-05-19T17:31:51.402Z,74.50
2023-05-19T17:34:39.747Z,73.40
2023-05-19T17:37:28.418Z,73.90
2023-05-19T17:40:16.413Z,74.20
2023-05-19T17:43:03.680Z,73.60
2023-05-19T17:45:51.421Z,74.10
2023-05-19T17:48:39.737Z,74.50
2023-05-19T17:51:28.405Z,74.30
2023-05-19T17:54:17.510Z,74.50
2023-05-19T17:57:10.760Z,75.30
2023-05-19T17:59:58.438Z,75.00
2023-05-19T18:02:46.851Z,74.80
2023-05-19T18:05:34.359Z,75.00
2023-05-19T18:08:23.050Z,75.00
2023-05-19T18:11:15.822Z,75.30
2023-05-19T18:14:03.644Z,75.10
2023-05-19T18:16:50.962Z,75.10
2023-05-19T18:19:38.746Z,74.90
2023-05-19T18:22:26.226Z,75.00
2023-05-19T18:25:14.294Z,75.40
2023-05-19T18:28:02.954Z,75.60
2023-05-19T18:30:59.376Z,76.30
2023-05-19T18:33:47.087Z,76.30
2023-05-19T18:36:36.104Z,76.10
2023-05-19T18:39:23.261Z,76.90
2023-05-19T18:42:11.028Z,76.90
2023-05-19T18:44:59.561Z,77.20
2023-05-19T18:47:47.659Z,77.60
2023-05-19T18:50:35.185Z,77.60
2023-05-19T18:53:22.817Z,78.60
2023-05-19T18:56:11.951Z,77.30
2023-05-19T18:58:59.174Z,76.40
2023-05-19T19:01:48.313Z,76.50
2023-05-19T19:04:35.780Z,76.60
2023-05-19T19:07:24.259Z,77.00
2023-05-19T19:10:11.948Z,76.80
2023-05-19T19:12:59.628Z,76.80
2023-05-19T19:15:47.537Z,76.80
2023-05-19T19:18:36.414Z,76.90
2023-05-19T19:21:24.275Z,77.40
2023-05-19T19:24:11.485Z,77.60
2023-05-19T19:26:59.693Z,78.00
2023-05-19T19:29:47.134Z,78.50
2023-05-19T19:32:34.831Z,78.80
2023-05-19T19:35:23.598Z,79.40
2023-05-19T19:38:10.884Z,78.90
2023-05-19T19:40:58.841Z,79.50
2023-05-19T19:43:46.234Z,79.60
2023-05-19T19:46:33.475Z,79.80
2023-05-19T19:49:21.010Z,79.60
2023-05-19T19:52:09.556Z,80.30
2023-05-19T19:54:57.330Z,80.70
2023-05-19T19:57:47.137Z,81.10
2023-05-19T20:00:34.542Z,81.00
2023-05-19T20:03:22.306Z,80.90
2023-05-19T20:06:09.647Z,81.30
2023-05-19T20:08:58.214Z,80.60
2023-05-19T20:11:45.408Z,80.40
2023-05-19T20:14:33.111Z,80.70
2023-05-19T20:17:20.767Z,80.10
2023-05-19T20:20:10.802Z,80.30
2023-05-19T20:22:58.453Z,81.00
2023-05-19T20:25:58.915Z,81.20
2023-05-19T20:28:54.786Z,80.70
2023-05-19T20:31:42.062Z,81.60
2023-05-19T20:34:29.248Z,81.20
2023-05-19T20:37:17.861Z,81.10
2023-05-19T20:40:06.493Z,81.70
2023-05-19T20:42:55.043Z,82.00
2023-05-19T20:45:43.805Z,81.70
2023-05-19T20:48:31.868Z,81.80
2023-05-19T20:51:19.107Z,81.90
2023-05-19T20:54:07.365Z,82.30
2023-05-19T20:56:54.604Z,82.20
2023-05-19T20:59:44.145Z,81.80
2023-05-19T21:02:31.422Z,82.40
2023-05-19T21:05:19.405Z,82.00
2023-05-19T21:08:12.505Z,82.40
2023-05-19T21:11:00.225Z,82.40
2023-05-19T21:13:47.372Z,82.70
2023-05-19T21:16:38.753Z,82.40
2023-05-19T21:19:26.273Z,83.00
2023-05-19T21:22:14.470Z,83.20
2023-05-19T21:25:02.172Z,83.30
2023-05-19T21:27:51.468Z,83.50
2023-05-19T21:30:39.249Z,83.80
2023-05-19T21:33:27.833Z,83.70
2023-05-19T21:36:14.978Z,84.00
2023-05-19T21:39:04.846Z,83.50
2023-05-19T21:41:52.089Z,83.40
2023-05-19T21:44:39.782Z,84.40
2023-05-19T21:47:27.134Z,84.90
2023-05-19T21:50:17.450Z,84.90
2023-05-19T21:53:04.703Z,85.40
2023-05-19T21:55:52.866Z,85.70
2023-05-19T21:58:40.552Z,85.50
2023-05-19T22:01:27.783Z,85.20
2023-05-19T22:04:17.878Z,85.30
2023-05-19T22:07:07.714Z,85.10
2023-05-19T22:09:55.446Z,85.40
2023-05-19T22:12:42.621Z,85.60
2023-05-19T22:15:30.765Z,85.60
2023-05-19T22:18:17.982Z,85.60
2023-05-19T22:21:06.271Z,85.50
2023-05-19T22:23:54.858Z,85.90
2023-05-19T22:26:43.525Z,85.70
2023-05-19T22:29:30.834Z,85.80
2023-05-19T22:32:19.998Z,86.10
2023-05-19T22:35:08.305Z,86.10
2023-05-19T22:37:56.585Z,86.20
2023-05-19T22:40:45.666Z,86.20
2023-05-19T22:43:33.344Z,86.40
2023-05-19T22:46:21.285Z,86.50
2023-05-19T22:49:08.586Z,86.50
2023-05-19T22:51:56.797Z,86.30
2023-05-19T22:54:44.898Z,86.60
2023-05-19T22:57:33.973Z,86.90
2023-05-19T23:00:21.217Z,87.20
2023-05-19T23:03:09.432Z,87.30
2023-05-19T23:05:56.803Z,87.30
2023-05-19T23:08:46.728Z,87.20
2023-05-19T23:11:35.748Z,87.40
2023-05-19T23:14:26.086Z,87.70
2023-05-19T23:17:13.413Z,87.80
2023-05-19T23:20:01.729Z,88.00
2023-05-19T23:22:48.907Z,88.20
2023-05-19T23:25:37.083Z,88.60
2023-05-19T23:28:24.248Z,88.90
2023-05-19T23:31:13.998Z,89.40
2023-05-19T23:34:01.723Z,89.80
2023-05-19T23:36:49.444Z,89.70
2023-05-19T23:39:38.688Z,90.10
2023-05-19T23:42:26.002Z,90.20
2023-05-19T23:45:14.158Z,90.70
2023-05-19T23:48:03.184Z,91.20
2023-05-19T23:50:50.364Z,91.20
2023-05-19T23:53:38.532Z,91.30
2023-05-19T23:56:25.998Z,91.60
2023-05-19T23:59:13.662Z,91.60
